Time;durP1;ratioP1;P1;durP2;ratioP2;P2;SDS_P1;SDS_P2;PMS_P1;PMS_P2;Temp;Humidity;BMP_temperature;BMP_pressure;BME280_temperature;BME280_humidity;BME280_pressure;Samples;Min_cycle;Max_cycle;Signal;HPM_P1;HPM_P2
2021/04/06 00:00:22;;;;;;;10.70;2.65;;;;;;;-1.55;97.80;99639.38;5003038;28;20041;-89
2021/04/06 00:02:57;;;;;;;11.37;1.90;;;;;;;-1.51;97.14;99655.84;5027058;28;20045;-89
2021/04/06 00:05:24;;;;;;;11.70;2.50;;;;;;;-1.61;97.75;99649.66;4995082;28;20048;-86
2021/04/06 00:07:52;;;;;;;7.70;2.07;;;;;;;-1.63;98.34;99651.34;5000433;28;20049;-86
2021/04/06 00:10:39;;;;;;;9.23;2.30;;;;;;;-1.62;98.69;99653.09;5000173;28;20048;-85
2021/04/06 00:13:06;;;;;;;9.90;2.10;;;;;;;-1.61;97.85;99653.97;5022649;28;20040;-86
2021/04/06 00:15:34;;;;;;;8.63;2.23;;;;;;;-1.60;98.87;99664.34;5021043;28;20048;-86
2021/04/06 00:18:04;;;;;;;5.70;1.93;;;;;;;-1.65;98.12;99657.38;5009979;28;20052;-86
2021/04/06 00:20:32;;;;;;;8.20;2.03;;;;;;;-1.68;99.02;99657.31;4998378;28;20138;-86
2021/04/06 00:23:00;;;;;;;7.77;1.87;;;;;;;-1.70;99.06;99653.00;5031804;28;20048;-86
2021/04/06 00:25:29;;;;;;;6.60;2.87;;;;;;;-1.63;98.59;99656.53;4996395;28;20037;-86
2021/04/06 00:27:56;;;;;;;6.33;1.83;;;;;;;-1.66;99.19;99655.66;5004795;28;20049;-86
2021/04/06 00:30:30;;;;;;;6.97;2.70;;;;;;;-1.61;97.98;99660.00;5013364;28;20048;-85
2021/04/06 00:33:10;;;;;;;5.65;1.70;;;;;;;-1.61;98.36;99659.13;5013688;28;20045;-86
2021/04/06 00:35:37;;;;;;;8.13;2.20;;;;;;;-1.64;99.29;99669.47;5016158;28;20054;-86
2021/04/06 00:38:07;;;;;;;9.03;2.60;;;;;;;-1.62;98.98;99660.00;4999772;28;20048;-85
2021/04/06 00:40:37;;;;;;;6.93;2.23;;;;;;;-1.59;98.05;99667.81;4997822;28;20056;-86
2021/04/06 00:43:04;;;;;;;6.90;2.47;;;;;;;-1.59;98.82;99673.00;4992610;28;20041;-86
2021/04/06 00:45:32;;;;;;;6.07;2.03;;;;;;;-1.62;98.82;99671.22;4998395;28;20048;-86
2021/04/06 00:48:00;;;;;;;5.70;2.40;;;;;;;-1.61;98.56;99672.09;4998853;28;20049;-85
2021/04/06 00:50:32;;;;;;;7.57;2.00;;;;;;;-1.61;98.35;99675.53;5017193;28;20061;-85
2021/04/06 00:52:58;;;;;;;6.07;1.97;;;;;;;-1.60;98.55;99677.28;5007990;28;20036;-85
2021/04/06 00:55:32;;;;;;;6.40;2.77;;;;;;;-1.59;98.31;99675.59;5006791;28;20045;-86
2021/04/06 00:57:58;;;;;;;6.03;2.08;;;;;;;-1.65;98.37;99678.97;5019130;28;20038;-85
2021/04/06 01:00:29;;;;;;;6.17;2.07;;;;;;;-1.63;98.20;99684.16;5012351;28;20402;-86
2021/04/06 01:03:12;;;;;;;9.10;1.90;;;;;;;-1.59;97.34;99683.38;5011592;28;20033;-86
2021/04/06 01:06:00;;;;;;;7.13;2.03;;;;;;;-1.62;98.22;99694.53;5030989;28;20052;-85
2021/04/06 01:08:37;;;;;;;5.80;2.00;;;;;;;-1.59;97.49;99693.72;5014767;28;20084;-86
2021/04/06 01:11:04;;;;;;;9.67;2.53;;;;;;;-1.56;97.75;99699.78;4998644;28;20060;-85
2021/04/06 01:13:33;;;;;;;3.50;2.30;;;;;;;-1.64;98.14;99695.38;5009463;28;20083;-85
2021/04/06 01:16:01;;;;;;;8.83;2.50;;;;;;;-1.60;98.44;99702.31;4998415;28;20053;-85
2021/04/06 01:18:28;;;;;;;7.57;2.60;;;;;;;-1.66;97.84;99704.84;4997938;28;20418;-86
2021/04/06 01:20:55;;;;;;;7.83;1.97;;;;;;;-1.65;97.63;99702.28;5001930;28;20486;-85
2021/04/06 01:23:23;;;;;;;10.47;2.40;;;;;;;-1.70;98.50;99704.78;4979876;28;20586;-85
2021/04/06 01:25:55;;;;;;;5.73;2.03;;;;;;;-1.70;98.49;99711.69;5014032;28;20071;-85
2021/04/06 01:28:29;;;;;;;4.67;1.93;;;;;;;-1.76;98.71;99715.09;5015178;28;20076;-86
2021/04/06 01:30:57;;;;;;;9.02;2.00;;;;;;;-1.66;97.96;99708.31;4995616;28;20054;-85
2021/04/06 01:33:24;;;;;;;10.00;2.13;;;;;;;-1.71;98.74;99709.94;4996804;28;20053;-86
2021/04/06 01:35:55;;;;;;;8.27;1.60;;;;;;;-1.71;99.03;99712.53;4987511;28;20053;-86
2021/04/06 01:38:27;;;;;;;4.00;1.80;;;;;;;-1.60;97.67;99710.09;5014232;28;20048;-85
2021/04/06 01:40:58;;;;;;;9.10;2.37;;;;;;;-1.60;97.12;99718.72;4998415;28;20505;-85
2021/04/06 01:43:28;;;;;;;5.80;2.60;;;;;;;-1.62;97.02;99715.25;5001051;28;20049;-86
2021/04/06 01:46:00;;;;;;;7.40;2.57;;;;;;;-1.68;97.77;99714.28;4996131;28;20041;-86
2021/04/06 01:48:28;;;;;;;4.70;2.57;;;;;;;-1.70;97.77;99716.88;5010373;28;20065;-85
2021/04/06 01:50:56;;;;;;;9.27;2.33;;;;;;;-1.67;97.62;99723.81;5012848;28;20152;-85
2021/04/06 01:53:24;;;;;;;6.03;2.53;;;;;;;-1.67;98.30;99721.25;5010453;28;20056;-85
2021/04/06 01:55:58;;;;;;;5.77;1.87;;;;;;;-1.64;97.80;99723.84;5000568;28;20048;-86
2021/04/06 01:58:27;;;;;;;8.20;2.37;;;;;;;-1.62;97.07;99720.44;4995244;28;20052;-86
2021/04/06 02:03:39;;;;;;;3.47;1.50;;;;;;;-1.61;98.12;99732.53;5027879;28;20129;-85
2021/04/06 02:06:08;;;;;;;6.13;2.10;;;;;;;-1.66;98.05;99731.59;4995528;28;20033;-86
2021/04/06 02:08:35;;;;;;;5.77;2.00;;;;;;;-1.70;97.30;99728.09;4998969;28;20051;-86
2021/04/06 02:11:01;;;;;;;6.10;2.13;;;;;;;-1.72;98.03;99722.03;5000752;28;20574;-86
2021/04/06 02:13:27;;;;;;;8.07;2.80;;;;;;;-1.76;98.36;99717.66;4992898;28;20045;-85
2021/04/06 02:16:01;;;;;;;4.77;1.93;;;;;;;-1.78;98.79;99727.13;4993538;28;20041;-87
2021/04/06 02:18:29;;;;;;;4.88;2.45;;;;;;;-1.81;98.33;99723.63;4999759;28;20375;-86
2021/04/06 02:20:57;;;;;;;4.90;1.70;;;;;;;-1.83;98.99;99723.59;5012568;28;20056;-86
2021/04/06 02:23:24;;;;;;;7.73;1.67;;;;;;;-1.84;98.51;99723.59;4997223;28;20048;-86
2021/04/06 02:25:55;;;;;;;4.60;1.97;;;;;;;-1.86;98.50;99722.69;4994270;28;20044;-86
2021/04/06 02:28:25;;;;;;;4.10;2.10;;;;;;;-1.91;99.47;99724.34;5003137;28;20049;-86
2021/04/06 02:31:01;;;;;;;12.93;2.10;;;;;;;-1.86;99.47;99722.69;5002425;28;20049;-86
2021/04/06 02:33:32;;;;;;;5.97;2.23;;;;;;;-1.87;100.00;99732.16;5004058;28;20064;-86
2021/04/06 02:36:04;;;;;;;11.33;2.63;;;;;;;-1.87;99.25;99729.56;5009516;28;20048;-85
2021/04/06 02:38:33;;;;;;;5.70;2.10;;;;;;;-1.86;98.81;99720.09;5005563;28;20056;-86
2021/04/06 02:41:15;;;;;;;6.53;1.70;;;;;;;-1.89;99.45;99722.66;5018930;28;20324;-86
2021/04/06 02:43:48;;;;;;;8.17;2.17;;;;;;;-1.94;99.62;99721.69;4992498;28;20033;-86
2021/04/06 02:46:18;;;;;;;3.70;1.90;;;;;;;-1.97;99.90;99722.53;5028696;28;20037;-86
2021/04/06 02:48:49;;;;;;;5.72;1.98;;;;;;;-1.95;100.00;99709.59;5010730;28;20041;-85
2021/04/06 02:51:15;;;;;;;8.37;2.47;;;;;;;-1.95;100.00;99722.53;4999089;28;20060;-86
2021/04/06 02:53:42;;;;;;;7.30;1.90;;;;;;;-1.90;99.71;99724.38;4984818;28;20486;-86
2021/04/06 02:56:09;;;;;;;9.93;2.67;;;;;;;-1.96;100.00;99715.63;5013586;28;20040;-86
2021/04/06 02:58:37;;;;;;;6.00;1.80;;;;;;;-1.99;99.17;99713.88;5009822;28;20044;-86
2021/04/06 03:01:30;;;;;;;6.20;2.50;;;;;;;-2.07;100.00;99724.13;4990609;28;20040;-86
2021/04/06 03:03:56;;;;;;;6.97;2.10;;;;;;;-2.08;100.00;99729.28;5008561;28;20530;-86
2021/04/06 03:06:22;;;;;;;7.50;3.03;;;;;;;-2.07;100.00;99726.69;4994477;28;20041;-85
2021/04/06 03:08:49;;;;;;;8.93;2.23;;;;;;;-2.18;100.00;99736.03;5012120;28;20136;-87
2021/04/06 03:11:15;;;;;;;11.03;3.37;;;;;;;-2.15;100.00;99738.66;5013068;28;20517;-86
2021/04/06 03:13:43;;;;;;;5.37;2.10;;;;;;;-2.09;100.00;99733.56;4987295;28;20072;-86
2021/04/06 03:16:11;;;;;;;7.97;2.17;;;;;;;-2.19;100.00;99742.03;5007791;28;20132;-85
2021/04/06 03:18:39;;;;;;;7.40;2.40;;;;;;;-2.24;100.00;99740.22;5009386;28;20223;-87
2021/04/06 03:21:07;;;;;;;4.57;2.20;;;;;;;-2.25;100.00;99725.56;5022837;28;20484;-86
2021/04/06 03:23:34;;;;;;;5.50;2.03;;;;;;;-2.28;100.00;99736.69;5002961;28;20045;-86
2021/04/06 03:26:03;;;;;;;6.07;2.30;;;;;;;-2.25;100.00;99725.56;5017034;28;20107;-86
2021/04/06 03:28:37;;;;;;;7.03;2.50;;;;;;;-2.34;100.00;99731.44;5018004;28;20047;-86
2021/04/06 03:31:14;;;;;;;7.43;2.45;;;;;;;-2.37;100.00;99732.25;5017397;28;20082;-86
2021/04/06 03:33:42;;;;;;;6.03;2.50;;;;;;;-2.47;100.00;99732.06;5005637;28;20037;-85
2021/04/06 03:36:18;;;;;;;5.80;2.03;;;;;;;-2.45;100.00;99735.56;5011972;28;20052;-86
2021/04/06 03:38:45;;;;;;;9.07;2.57;;;;;;;-2.40;100.00;99731.34;5017844;28;20041;-87
2021/04/06 03:41:11;;;;;;;4.47;2.40;;;;;;;-2.47;100.00;99730.34;5010577;28;20049;-87
2021/04/06 03:43:40;;;;;;;3.80;2.37;;;;;;;-2.52;100.00;99733.69;5010969;28;20502;-87
2021/04/06 03:46:07;;;;;;;5.80;2.97;;;;;;;-2.51;100.00;99738.94;5010240;28;20041;-87
2021/04/06 03:48:35;;;;;;;4.10;2.60;;;;;;;-2.49;100.00;99742.41;5010613;28;20057;-87
2021/04/06 03:51:04;;;;;;;5.47;2.13;;;;;;;-2.52;100.00;99736.28;5002411;28;20045;-87
2021/04/06 03:53:41;;;;;;;5.83;2.90;;;;;;;-2.47;100.00;99745.00;4996521;28;20491;-88
2021/04/06 03:56:12;;;;;;;6.27;3.67;;;;;;;-2.40;100.00;99739.97;5013306;28;20037;-87
2021/04/06 03:58:54;;;;;;;7.07;3.03;;;;;;;-2.35;100.00;99751.28;4999190;28;20141;-87
2021/04/06 04:01:20;;;;;;;6.53;2.63;;;;;;;-2.32;100.00;99735.78;5015585;28;20041;-87
2021/04/06 04:03:46;;;;;;;9.87;2.97;;;;;;;-2.24;100.00;99740.22;4991794;28;20056;-87
2021/04/06 04:06:22;;;;;;;5.37;2.40;;;;;;;-2.21;100.00;99733.38;5002743;28;20057;-86
2021/04/06 04:08:49;;;;;;;6.87;3.50;;;;;;;-2.22;100.00;99741.13;5017122;28;20544;-87
2021/04/06 04:11:15;;;;;;;5.20;3.27;;;;;;;-2.24;100.00;99728.16;5010447;28;20045;-85
2021/04/06 04:13:41;;;;;;;5.83;2.90;;;;;;;-2.24;100.00;99741.09;5016553;28;20550;-87
2021/04/06 04:16:07;;;;;;;5.97;2.60;;;;;;;-2.19;100.00;99738.56;5007044;28;20047;-88
2021/04/06 04:18:34;;;;;;;9.13;2.83;;;;;;;-2.15;100.00;99740.38;4999944;28;20045;-87
2021/04/06 04:21:04;;;;;;;10.37;3.47;;;;;;;-2.19;100.00;99741.16;5010591;28;20045;-87
2021/04/06 04:23:31;;;;;;;5.30;2.90;;;;;;;-2.20;100.00;99748.03;5000666;28;20383;-88
2021/04/06 04:25:57;;;;;;;6.33;2.63;;;;;;;-2.12;100.00;99740.41;5011191;28;20497;-87
2021/04/06 04:28:23;;;;;;;5.87;2.40;;;;;;;-2.08;100.00;99737.03;4991200;28;20124;-87
2021/04/06 04:30:52;;;;;;;5.57;2.70;;;;;;;-2.08;100.00;99726.69;4985147;28;20053;-88
2021/04/06 04:33:19;;;;;;;8.30;3.07;;;;;;;-2.08;100.00;99737.91;5013394;28;20064;-87
2021/04/06 04:35:45;;;;;;;6.63;2.73;;;;;;;-2.04;100.00;99736.22;5008695;28;20049;-87
2021/04/06 04:38:12;;;;;;;9.10;3.33;;;;;;;-2.07;100.00;99731.88;4997106;28;20041;-86
2021/04/06 04:40:41;;;;;;;7.03;3.57;;;;;;;-2.09;100.00;99748.25;5002452;28;20116;-85
2021/04/06 04:43:09;;;;;;;5.53;2.60;;;;;;;-2.01;100.00;99736.28;4997811;28;20108;-87
2021/04/06 04:45:35;;;;;;;6.73;2.70;;;;;;;-2.04;100.00;99739.69;4996981;28;20063;-87
2021/04/06 04:48:02;;;;;;;7.80;3.33;;;;;;;-2.04;100.00;99737.09;5017373;28;20044;-86
2021/04/06 04:50:28;;;;;;;5.37;2.90;;;;;;;-2.03;100.00;99741.41;4999202;28;20049;-86
2021/04/06 04:52:55;;;;;;;7.87;3.07;;;;;;;-1.99;100.00;99750.13;5006234;28;20368;-87
2021/04/06 04:55:21;;;;;;;4.97;2.77;;;;;;;-2.01;100.00;99736.28;5020110;28;20718;-86
2021/04/06 04:57:52;;;;;;;6.73;2.60;;;;;;;-2.02;100.00;99748.34;5011415;28;20328;-86
2021/04/06 05:00:18;;;;;;;8.30;2.57;;;;;;;-1.96;100.00;99744.09;4991882;28;20041;-87
2021/04/06 05:02:44;;;;;;;5.80;2.70;;;;;;;-1.88;100.00;99748.53;5002626;28;20056;-88
2021/04/06 05:05:54;;;;;;;8.80;2.80;;;;;;;-1.89;100.00;99751.97;5000005;28;20490;-87
2021/04/06 05:08:21;;;;;;;6.30;2.97;;;;;;;-1.89;100.00;99757.16;5017919;28;20131;-87
2021/04/06 05:11:08;;;;;;;8.03;3.47;;;;;;;-1.83;100.00;99749.50;5008032;28;20554;-87
2021/04/06 05:13:34;;;;;;;6.47;2.47;;;;;;;-1.82;99.99;99748.66;5015098;28;20038;-89
2021/04/06 05:16:01;;;;;;;9.73;3.80;;;;;;;-1.85;99.51;99745.13;5015833;28;20033;-87
2021/04/06 05:18:28;;;;;;;7.30;2.70;;;;;;;-1.85;99.79;99743.44;5002589;28;20044;-88
2021/04/06 05:20:54;;;;;;;8.00;3.30;;;;;;;-1.80;100.00;99731.41;5003339;28;20099;-87
2021/04/06 05:23:20;;;;;;;9.83;4.17;;;;;;;-1.76;99.34;99743.56;5018910;28;20401;-87
2021/04/06 05:26:18;;;;;;;5.23;3.17;;;;;;;-1.67;99.41;99741.97;5002753;28;20076;-87
2021/04/06 05:28:44;;;;;;;5.97;2.60;;;;;;;-1.57;98.37;99747.28;5002048;28;20067;-87
2021/04/06 05:31:14;;;;;;;6.37;2.73;;;;;;;-1.54;97.78;99756.78;5003190;28;20045;-88
2021/04/06 05:33:45;;;;;;;6.63;3.23;;;;;;;-1.47;97.80;99761.22;5002090;28;20048;-87
2021/04/06 05:36:12;;;;;;;7.87;3.53;;;;;;;-1.40;97.38;99764.75;5018872;28;20044;-87
2021/04/06 05:38:38;;;;;;;6.40;3.13;;;;;;;-1.40;97.46;99765.63;5018053;28;20049;-88
2021/04/06 05:41:04;;;;;;;8.37;3.50;;;;;;;-1.35;97.13;99760.50;5017560;28;20041;-88
2021/04/06 05:43:31;;;;;;;8.23;3.47;;;;;;;-1.35;97.02;99761.34;5001093;28;20075;-89
2021/04/06 05:45:58;;;;;;;6.77;3.20;;;;;;;-1.25;95.85;99759.78;5034244;28;20478;-87
2021/04/06 05:48:24;;;;;;;7.13;3.10;;;;;;;-1.24;95.73;99752.03;5001019;28;20405;-88
2021/04/06 05:50:53;;;;;;;10.83;2.90;;;;;;;-1.18;95.41;99746.91;5002520;28;20044;-87
2021/04/06 05:53:24;;;;;;;6.07;2.77;;;;;;;-1.20;96.18;99745.13;5002072;28;20040;-87
2021/04/06 05:55:51;;;;;;;8.27;3.10;;;;;;;-1.01;95.24;99747.13;5009664;28;20505;-87
2021/04/06 05:58:18;;;;;;;5.67;3.00;;;;;;;-1.03;93.83;99745.34;5020953;28;20516;-88
2021/04/06 06:00:45;;;;;;;10.67;3.40;;;;;;;-0.95;94.87;99744.56;5000875;28;20045;-87
2021/04/06 06:03:11;;;;;;;5.53;3.13;;;;;;;-0.88;93.42;99738.59;5001033;28;20045;-88
2021/04/06 06:05:41;;;;;;;6.37;2.60;;;;;;;-0.76;92.47;99729.19;4969787;28;20045;-87
2021/04/06 06:08:13;;;;;;;5.27;2.80;;;;;;;-0.54;91.23;99738.06;5005708;28;20069;-88
2021/04/06 06:10:40;;;;;;;7.10;2.77;;;;;;;-0.45;89.89;99740.75;5014600;28;20045;-89
2021/04/06 06:13:13;;;;;;;4.90;2.43;;;;;;;-0.22;90.40;99736.63;5013457;28;20109;-87
2021/04/06 06:15:41;;;;;;;4.97;2.57;;;;;;;-0.21;88.74;99740.97;5018296;28;20056;-88
2021/04/06 06:18:07;;;;;;;11.73;3.73;;;;;;;-0.11;89.39;99750.56;4996334;28;20053;-88
2021/04/06 06:20:35;;;;;;;7.27;2.60;;;;;;;-0.14;90.11;99745.34;5009708;28;20071;-88
2021/04/06 06:23:21;;;;;;;6.60;3.03;;;;;;;-0.33;89.71;99749.53;5015389;28;20049;-88
2021/04/06 06:26:02;;;;;;;5.37;2.47;;;;;;;-0.23;90.99;99750.47;5003817;28;20078;-87
2021/04/06 06:28:29;;;;;;;5.43;2.60;;;;;;;-0.37;89.54;99757.25;5025337;28;20060;-89
2021/04/06 06:30:57;;;;;;;4.10;2.30;;;;;;;-0.22;89.97;99748.75;4998436;28;20049;-88
2021/04/06 06:33:29;;;;;;;5.20;2.60;;;;;;;-0.23;88.61;99745.28;5000490;28;20040;-88
2021/04/06 06:35:59;;;;;;;5.60;2.70;;;;;;;-0.06;89.65;99748.88;4996834;28;20100;-88
2021/04/06 06:38:29;;;;;;;7.23;3.30;;;;;;;0.26;88.06;99743.03;4985984;28;20510;-88
2021/04/06 06:41:13;;;;;;;6.13;2.50;;;;;;;0.20;87.81;99740.41;5011135;28;20337;-88
2021/04/06 06:43:58;;;;;;;4.43;2.85;;;;;;;0.09;88.72;99734.28;5032822;28;20094;-88
2021/04/06 06:46:37;;;;;;;5.05;3.05;;;;;;;0.36;86.29;99742.25;5005229;28;20192;-88
2021/04/06 06:49:35;;;;;;;7.47;3.00;;;;;;;0.83;85.19;99739.00;5019777;28;20040;-88
2021/04/06 06:52:08;;;;;;;8.00;3.00;;;;;;;0.83;83.72;99732.06;4999536;28;20585;-89
2021/04/06 06:54:38;;;;;;;4.27;2.67;;;;;;;1.54;81.06;99719.22;5016456;28;20040;-88
2021/04/06 06:57:14;;;;;;;5.77;3.00;;;;;;;1.46;80.11;99737.44;5016620;28;20409;-89
2021/04/06 06:59:45;;;;;;;8.47;3.20;;;;;;;1.04;81.42;99730.41;5010884;28;20451;-88
2021/04/06 07:02:22;;;;;;;7.47;2.70;;;;;;;1.26;81.98;99733.91;4989677;28;20045;-89
2021/04/06 07:05:09;;;;;;;6.67;2.67;;;;;;;1.40;80.98;99740.88;5017067;28;20044;-87
2021/04/06 07:08:09;;;;;;;6.50;2.90;;;;;;;1.48;81.29;99727.91;5004494;28;20090;-87
2021/04/06 07:10:42;;;;;;;5.67;3.20;;;;;;;1.71;78.81;99724.44;4989733;28;20045;-88
2021/04/06 07:13:18;;;;;;;4.95;2.80;;;;;;;1.67;79.66;99727.03;5015934;28;20041;-89
2021/04/06 07:15:47;;;;;;;8.43;3.73;;;;;;;1.71;79.15;99716.63;4999138;28;20049;-89
2021/04/06 07:18:16;;;;;;;8.87;3.77;;;;;;;1.95;77.98;99714.91;5014747;28;20044;-89
2021/04/06 07:20:50;;;;;;;5.23;2.70;;;;;;;3.34;75.93;99708.28;4986426;28;20101;-88
2021/04/06 07:23:41;;;;;;;5.30;2.27;;;;;;;4.89;69.33;99703.31;5014659;28;20470;-88
2021/04/06 07:26:12;;;;;;;8.13;2.47;;;;;;;5.49;63.30;99710.34;5016974;28;20436;-88
2021/04/06 07:28:40;;;;;;;5.40;2.43;;;;;;;4.93;64.48;99704.13;5000848;28;20044;-89
2021/04/06 07:31:10;;;;;;;5.23;2.20;;;;;;;4.47;66.59;99708.19;5017440;28;20041;-89
2021/04/06 07:33:39;;;;;;;4.77;2.97;;;;;;;3.99;67.37;99712.13;5001470;28;20065;-89
2021/04/06 07:36:33;;;;;;;10.50;4.77;;;;;;;4.29;69.31;99716.22;5000492;28;20049;-89
2021/04/06 07:39:23;;;;;;;3.83;2.70;;;;;;;4.71;66.26;99708.78;4999391;28;20060;-90
2021/04/06 07:41:50;;;;;;;10.03;3.23;;;;;;;4.28;66.72;99711.84;4998727;28;20090;-90
2021/04/06 07:44:43;;;;;;;7.97;3.23;;;;;;;3.65;68.74;99715.03;4983921;28;20148;-88
2021/04/06 07:47:10;;;;;;;8.27;3.07;;;;;;;4.04;68.81;99722.56;4998018;28;20477;-89
2021/04/06 07:49:38;;;;;;;8.60;3.07;;;;;;;4.13;68.42;99709.41;5007216;28;20136;-89
2021/04/06 07:52:18;;;;;;;6.40;3.33;;;;;;;4.26;68.06;99721.47;5004948;28;20048;-88
2021/04/06 07:54:50;;;;;;;7.10;3.30;;;;;;;5.33;69.49;99723.66;5002129;28;20048;-88
2021/04/06 07:57:18;;;;;;;7.60;3.07;;;;;;;5.66;64.20;99718.81;5015919;28;20041;-89
2021/04/06 07:59:49;;;;;;;7.00;3.30;;;;;;;5.04;64.16;99717.94;5001641;28;20049;-89
2021/04/06 08:02:25;;;;;;;7.67;3.50;;;;;;;5.14;65.71;99721.34;5003123;28;20498;-89
2021/04/06 08:04:59;;;;;;;6.83;3.43;;;;;;;5.36;65.25;99721.00;5003231;28;20087;-89
2021/04/06 08:07:32;;;;;;;7.60;2.70;;;;;;;5.91;62.35;99714.94;5018181;28;20487;-89
2021/04/06 08:10:02;;;;;;;6.82;3.17;;;;;;;5.79;65.75;99711.59;5006670;28;20096;-88
2021/04/06 08:12:36;;;;;;;6.87;3.37;;;;;;;6.12;60.29;99713.69;5017356;28;20203;-88
2021/04/06 08:15:18;;;;;;;5.32;2.42;;;;;;;5.85;60.18;99708.91;5019021;28;20103;-87
2021/04/06 08:17:47;;;;;;;8.97;3.20;;;;;;;6.28;63.33;99714.28;5018607;28;20577;-87
2021/04/06 08:20:14;;;;;;;7.33;3.50;;;;;;;7.60;59.74;99702.78;5024016;28;20422;-89
2021/04/06 08:22:43;;;;;;;7.23;3.23;;;;;;;7.15;59.09;99707.31;5020967;28;20047;-88
2021/04/06 08:25:16;;;;;;;6.87;3.30;;;;;;;6.55;64.38;99718.16;5021181;28;20067;-88
2021/04/06 08:27:44;;;;;;;8.10;2.87;;;;;;;5.81;60.50;99713.34;5018643;28;20095;-90
2021/04/06 08:30:22;;;;;;;8.77;3.10;;;;;;;5.34;61.60;99714.06;5009875;28;20107;-88
2021/04/06 08:33:00;;;;;;;7.63;3.77;;;;;;;5.47;62.98;99705.13;5017431;28;20045;-88
2021/04/06 08:35:39;;;;;;;9.93;4.70;;;;;;;6.28;62.42;99716.91;5019964;28;20047;-88
2021/04/06 08:38:29;;;;;;;8.30;3.40;;;;;;;6.53;60.34;99714.69;5017851;28;20048;-87
2021/04/06 08:41:34;;;;;;;6.60;3.03;;;;;;;8.42;60.92;99713.00;5017846;28;20041;-88
2021/04/06 08:44:05;;;;;;;6.53;2.53;;;;;;;9.88;50.20;99696.34;5017097;28;20041;-88
2021/04/06 08:46:35;;;;;;;5.65;2.47;;;;;;;9.18;50.59;99709.97;5003303;28;20041;-89
2021/04/06 08:49:41;;;;;;;5.57;2.20;;;;;;;8.64;51.69;99701.88;5035743;28;20045;-88
2021/04/06 08:52:12;;;;;;;5.65;2.67;;;;;;;8.09;53.83;99705.97;4976441;28;20046;-88
2021/04/06 08:54:39;;;;;;;5.05;2.72;;;;;;;9.24;58.59;99717.66;5008945;28;20137;-88
2021/04/06 08:57:07;;;;;;;8.25;3.28;;;;;;;8.18;53.76;99710.97;4985047;28;20140;-88
2021/04/06 08:59:35;;;;;;;5.55;2.58;;;;;;;9.28;57.13;99706.16;4984622;28;20071;-87
2021/04/06 09:02:04;;;;;;;5.68;2.40;;;;;;;9.48;50.52;99710.78;5001697;28;20068;-88
2021/04/06 09:04:32;;;;;;;6.35;2.42;;;;;;;9.38;49.63;99698.81;5019546;28;20136;-87
2021/04/06 09:06:58;;;;;;;5.43;2.78;;;;;;;11.23;48.24;99692.41;5003922;28;20037;-88
2021/04/06 09:13:07;;;;;;;6.88;2.90;;;;;;;7.60;52.86;99712.41;5018650;28;20071;-89
2021/04/06 09:15:34;;;;;;;7.93;3.15;;;;;;;8.80;54.20;99700.53;5000245;28;20055;-88
2021/04/06 09:18:02;;;;;;;8.93;3.28;;;;;;;9.10;52.10;99711.97;5017322;28;20494;-90
2021/04/06 09:20:34;;;;;;;8.35;3.75;;;;;;;8.85;50.69;99706.56;5001348;28;20041;-89
2021/04/06 09:23:05;;;;;;;6.05;2.42;;;;;;;8.24;53.34;99716.09;5000844;28;20094;-89
2021/04/06 09:25:32;;;;;;;7.55;3.20;;;;;;;6.75;56.03;99715.16;5013453;28;20506;-89
2021/04/06 09:28:01;;;;;;;8.90;3.10;;;;;;;6.57;58.68;99719.00;5026159;28;20037;-88
2021/04/06 09:30:36;;;;;;;7.67;3.43;;;;;;;7.33;53.04;99700.78;5004603;28;20041;-89
2021/04/06 09:33:09;;;;;;;6.03;2.47;;;;;;;6.37;53.68;99714.13;5015568;28;20396;-88
2021/04/06 09:35:35;;;;;;;10.30;2.50;;;;;;;6.97;58.56;99719.03;5017821;28;20045;-87
2021/04/06 09:38:02;;;;;;;5.83;2.13;;;;;;;8.22;49.67;99704.72;4997672;28;20148;-88
2021/04/06 09:40:40;;;;;;;5.57;2.40;;;;;;;8.98;47.60;99702.63;4995989;28;20410;-88
2021/04/06 09:43:06;;;;;;;4.30;2.07;;;;;;;8.89;50.08;99705.53;5017183;28;20041;-88
2021/04/06 09:45:33;;;;;;;6.10;2.20;;;;;;;8.27;52.55;99702.84;5018566;28;20112;-88
2021/04/06 09:47:59;;;;;;;4.68;2.03;;;;;;;8.84;49.84;99707.47;5013526;28;20456;-88
2021/04/06 09:50:27;;;;;;;5.40;2.50;;;;;;;9.43;50.40;99709.22;5005228;28;20049;-88
2021/04/06 09:52:55;;;;;;;5.57;2.63;;;;;;;7.69;49.38;99721.84;5014697;28;20052;-89
2021/04/06 09:55:25;;;;;;;6.70;2.45;;;;;;;7.29;51.33;99712.25;4996920;28;20141;-89
2021/04/06 09:57:59;;;;;;;5.23;2.07;;;;;;;8.66;55.53;99690.41;5000198;28;20103;-87
2021/04/06 10:00:32;;;;;;;4.68;2.08;;;;;;;8.84;47.65;99690.81;5014176;28;20132;-89
2021/04/06 10:03:25;;;;;;;6.10;2.20;;;;;;;8.83;48.21;99702.22;5015146;28;20041;-88
2021/04/06 10:06:04;;;;;;;6.07;2.10;;;;;;;7.90;48.00;99692.38;5011376;28;20056;-89
2021/04/06 10:08:32;;;;;;;6.13;1.90;;;;;;;7.69;49.74;99692.94;4999634;28;20076;-88
2021/04/06 10:10:59;;;;;;;5.88;2.38;;;;;;;8.59;51.57;99702.03;5015683;28;20048;-88
2021/04/06 10:13:26;;;;;;;9.00;3.28;;;;;;;8.38;48.87;99682.41;5016863;28;20508;-89
2021/04/06 10:16:17;;;;;;;4.75;2.83;;;;;;;8.93;48.58;99678.22;4995783;28;20041;-88
2021/04/06 10:18:46;;;;;;;6.45;3.67;;;;;;;8.51;49.95;99674.19;5004965;28;20328;-90
2021/04/06 10:21:25;;;;;;;5.18;2.58;;;;;;;9.42;47.42;99674.09;5014522;28;20047;-89
2021/04/06 10:24:52;;;;;;;3.00;1.67;;;;;;;9.56;44.71;99666.59;5011011;28;20044;-89
2021/04/06 10:27:47;;;;;;;10.60;3.15;;;;;;;7.96;48.47;99670.34;5039808;28;20041;-89
2021/04/06 10:30:16;;;;;;;3.78;1.95;;;;;;;7.50;49.01;99671.50;5027541;28;20045;-90
2021/04/06 10:32:45;;;;;;;3.03;1.77;;;;;;;6.76;49.39;99674.88;5003108;28;20044;-88
2021/04/06 10:35:12;;;;;;;5.17;2.40;;;;;;;6.09;52.95;99679.66;4989309;28;20045;-88
2021/04/06 10:37:42;;;;;;;4.50;2.27;;;;;;;6.09;55.33;99676.19;5010247;28;20399;-88
2021/04/06 10:40:31;;;;;;;5.90;1.90;;;;;;;8.67;52.71;99662.31;5012154;28;20075;-88
2021/04/06 10:43:13;;;;;;;4.50;2.27;;;;;;;10.30;47.13;99658.88;5019636;28;20048;-88
2021/04/06 10:45:44;;;;;;;5.20;2.67;;;;;;;9.61;43.83;99650.63;5029914;28;20115;-89
2021/04/06 10:48:11;;;;;;;6.50;2.25;;;;;;;8.07;45.93;99634.97;4997877;28;20041;-88
2021/04/06 10:50:41;;;;;;;4.13;2.13;;;;;;;7.86;48.70;99652.16;5008671;28;20049;-87
2021/04/06 10:53:20;;;;;;;3.83;1.80;;;;;;;7.28;48.68;99650.97;4997149;28;20449;-88
2021/04/06 10:55:51;;;;;;;4.80;1.90;;;;;;;7.14;50.04;99647.78;5012809;28;20049;-89
2021/04/06 10:58:27;;;;;;;4.07;2.00;;;;;;;7.13;50.14;99639.94;5028031;28;20080;-89
2021/04/06 11:01:04;;;;;;;4.00;1.60;;;;;;;9.88;43.86;99633.03;4990699;28;20053;-91
2021/04/06 11:03:55;;;;;;;3.33;1.77;;;;;;;11.58;42.95;99648.69;5050577;28;20219;-89
2021/04/06 11:06:34;;;;;;;3.97;1.70;;;;;;;10.56;40.18;99632.38;4996762;28;20072;-89
2021/04/06 11:09:17;;;;;;;3.95;1.77;;;;;;;9.21;40.91;99620.25;4995787;28;20137;-88
2021/04/06 11:11:50;;;;;;;3.72;1.95;;;;;;;9.95;41.51;99613.44;5012655;28;20144;-89
2021/04/06 11:14:18;;;;;;;2.95;1.52;;;;;;;11.67;36.83;99605.97;4995902;28;20128;-89
2021/04/06 11:16:46;;;;;;;3.78;1.60;;;;;;;12.57;35.73;99609.16;4996781;28;20056;-89
2021/04/06 11:19:23;;;;;;;5.25;1.90;;;;;;;11.85;33.72;99612.31;4998112;28;20061;-89
2021/04/06 11:21:54;;;;;;;3.55;1.50;;;;;;;10.38;35.57;99604.03;5028149;28;20472;-88
2021/04/06 11:24:23;;;;;;;3.20;1.50;;;;;;;11.08;35.04;99617.19;4995059;28;20094;-89
2021/04/06 11:26:50;;;;;;;3.45;1.58;;;;;;;12.59;34.52;99604.66;4992718;28;20056;-89
2021/04/06 11:29:20;;;;;;;4.75;1.45;;;;;;;13.48;32.98;99604.00;5011839;28;20068;-89
2021/04/06 11:31:48;;;;;;;4.75;1.63;;;;;;;13.91;36.83;99584.13;4996953;28;20402;-87
2021/04/06 11:34:16;;;;;;;6.03;1.65;;;;;;;13.07;35.46;99606.81;5027169;28;20550;-89
2021/04/06 11:36:44;;;;;;;4.82;1.35;;;;;;;10.82;40.90;99651.69;5013419;28;20052;-89
2021/04/06 11:39:12;;;;;;;3.13;1.35;;;;;;;7.65;55.24;99684.28;4993014;28;20114;-89
2021/04/06 11:41:39;;;;;;;3.15;1.25;;;;;;;6.39;64.38;99703.59;5012529;28;20316;-88
2021/04/06 11:44:07;;;;;;;2.42;1.20;;;;;;;4.87;70.40;99719.91;5011346;28;20051;-88
2021/04/06 11:46:35;;;;;;;5.80;1.53;;;;;;;4.30;71.94;99704.88;5000582;28;20508;-88
2021/04/06 11:49:04;;;;;;;2.43;1.23;;;;;;;3.50;79.32;99688.16;5015805;28;20049;-88
2021/04/06 11:51:30;;;;;;;3.47;1.20;;;;;;;3.44;78.03;99689.06;5021023;28;20045;-88
2021/04/06 11:53:56;;;;;;;3.53;1.23;;;;;;;3.52;76.81;99676.81;5013882;28;20056;-88
2021/04/06 11:56:23;;;;;;;2.73;0.97;;;;;;;4.71;74.37;99667.78;4999166;28;20044;-88
2021/04/06 11:58:49;;;;;;;1.40;1.10;;;;;;;5.93;69.69;99660.72;4999744;28;20304;-88
2021/04/06 12:01:29;;;;;;;4.27;1.30;;;;;;;6.76;62.66;99641.63;5001934;28;20072;-89